sensor_id;sensor_type;location;lat;lon;timestamp;pressure;altitude;pressure_sealevel;temperature;humidity
58373;BME280;44177;43.356;27.672;2023-03-03T00:01:42;98413.28;;;10.59;62.01
58373;BME280;44177;43.356;27.672;2023-03-03T00:04:07;98429.41;;;10.64;62.12
58373;BME280;44177;43.356;27.672;2023-03-03T00:06:33;98429.41;;;10.64;61.98
58373;BME280;44177;43.356;27.672;2023-03-03T00:08:58;98423.94;;;10.64;62.14
58373;BME280;44177;43.356;27.672;2023-03-03T00:11:24;98433.72;;;10.65;62.00
58373;BME280;44177;43.356;27.672;2023-03-03T00:13:52;98419.63;;;10.63;62.14
58373;BME280;44177;43.356;27.672;2023-03-03T00:16:21;98427.50;;;10.65;62.36
58373;BME280;44177;43.356;27.672;2023-03-03T00:18:47;98425.53;;;10.65;61.97
58373;BME280;44177;43.356;27.672;2023-03-03T00:21:35;98417.34;;;10.65;62.12
58373;BME280;44177;43.356;27.672;2023-03-03T00:24:18;98415.75;;;10.64;61.98
58373;BME280;44177;43.356;27.672;2023-03-03T00:27:16;98411.13;;;10.65;62.43
58373;BME280;44177;43.356;27.672;2023-03-03T00:29:48;98389.84;;;10.58;62.29
58373;BME280;44177;43.356;27.672;2023-03-03T00:32:30;98402.47;;;10.63;62.20
58373;BME280;44177;43.356;27.672;2023-03-03T00:35:07;98392.34;;;10.63;61.84
58373;BME280;44177;43.356;27.672;2023-03-03T00:37:42;98395.31;;;10.58;62.34
58373;BME280;44177;43.356;27.672;2023-03-03T00:40:25;98396.19;;;10.62;62.13
58373;BME280;44177;43.356;27.672;2023-03-03T00:42:57;98392.69;;;10.62;62.19
58373;BME280;44177;43.356;27.672;2023-03-03T00:48:50;98386.44;;;10.61;62.08
58373;BME280;44177;43.356;27.672;2023-03-03T00:51:32;98381.31;;;10.59;62.46
58373;BME280;44177;43.356;27.672;2023-03-03T00:53:59;98380.53;;;10.59;62.08
58373;BME280;44177;43.356;27.672;2023-03-03T00:56:25;98376.66;;;10.60;62.21
58373;BME280;44177;43.356;27.672;2023-03-03T00:58:52;98374.38;;;10.62;62.25
58373;BME280;44177;43.356;27.672;2023-03-03T01:01:18;98378.28;;;10.61;62.28
58373;BME280;44177;43.356;27.672;2023-03-03T01:03:43;98377.34;;;10.57;62.34
58373;BME280;44177;43.356;27.672;2023-03-03T01:06:10;98364.84;;;10.56;62.09
58373;BME280;44177;43.356;27.672;2023-03-03T01:08:36;98368.13;;;10.62;62.30
58373;BME280;44177;43.356;27.672;2023-03-03T01:11:09;98369.72;;;10.63;62.17
58373;BME280;44177;43.356;27.672;2023-03-03T01:13:39;98362.56;;;10.58;62.23
58373;BME280;44177;43.356;27.672;2023-03-03T01:16:06;98359.38;;;10.56;62.09
58373;BME280;44177;43.356;27.672;2023-03-03T01:18:32;98364.28;;;10.63;61.91
58373;BME280;44177;43.356;27.672;2023-03-03T01:20:57;98364.63;;;10.61;62.14
58373;BME280;44177;43.356;27.672;2023-03-03T01:23:23;98362.69;;;10.62;61.98
58373;BME280;44177;43.356;27.672;2023-03-03T01:25:48;98352.44;;;10.58;62.28
58373;BME280;44177;43.356;27.672;2023-03-03T01:28:14;98342.34;;;10.59;62.16
58373;BME280;44177;43.356;27.672;2023-03-03T01:30:39;98335.28;;;10.58;62.15
58373;BME280;44177;43.356;27.672;2023-03-03T01:33:05;98336.53;;;10.61;62.37
58373;BME280;44177;43.356;27.672;2023-03-03T01:35:30;98326.75;;;10.59;62.40
58373;BME280;44177;43.356;27.672;2023-03-03T01:37:56;98331.44;;;10.59;62.37
58373;BME280;44177;43.356;27.672;2023-03-03T01:40:25;98333.03;;;10.60;62.07
58373;BME280;44177;43.356;27.672;2023-03-03T01:42:51;98333.34;;;10.58;62.02
58373;BME280;44177;43.356;27.672;2023-03-03T01:45:28;98340.06;;;10.61;62.24
58373;BME280;44177;43.356;27.672;2023-03-03T01:48:07;98337.34;;;10.61;62.27
58373;BME280;44177;43.356;27.672;2023-03-03T01:53:18;98321.19;;;10.56;62.09
58373;BME280;44177;43.356;27.672;2023-03-03T01:55:45;98327.56;;;10.60;62.17
58373;BME280;44177;43.356;27.672;2023-03-03T02:00:49;98312.22;;;10.55;62.30
58373;BME280;44177;43.356;27.672;2023-03-03T02:03:17;98320.53;;;10.59;61.96
58373;BME280;44177;43.356;27.672;2023-03-03T02:05:44;98318.94;;;10.58;62.40
58373;BME280;44177;43.356;27.672;2023-03-03T02:08:11;98320.53;;;10.59;62.21
58373;BME280;44177;43.356;27.672;2023-03-03T02:10:40;98317.34;;;10.57;62.02
58373;BME280;44177;43.356;27.672;2023-03-03T02:13:07;98312.69;;;10.57;62.34
58373;BME280;44177;43.356;27.672;2023-03-03T02:15:33;98305.53;;;10.53;62.35
58373;BME280;44177;43.356;27.672;2023-03-03T02:18:04;98321.31;;;10.59;62.10
58373;BME280;44177;43.356;27.672;2023-03-03T02:23:28;98302.34;;;10.51;62.39
58373;BME280;44177;43.356;27.672;2023-03-03T02:28:22;98318.16;;;10.57;62.16
58373;BME280;44177;43.356;27.672;2023-03-03T02:30:48;98322.78;;;10.57;62.25
58373;BME280;44177;43.356;27.672;2023-03-03T02:33:14;98316.56;;;10.56;62.12
58373;BME280;44177;43.356;27.672;2023-03-03T02:35:40;98318.47;;;10.56;62.20
58373;BME280;44177;43.356;27.672;2023-03-03T02:38:25;98320.53;;;10.59;62.43
58373;BME280;44177;43.356;27.672;2023-03-03T02:46:15;98296.88;;;10.51;62.32
58373;BME280;44177;43.356;27.672;2023-03-03T02:48:41;98305.97;;;10.55;62.28
58373;BME280;44177;43.356;27.672;2023-03-03T02:51:06;98302.44;;;10.54;62.36
58373;BME280;44177;43.356;27.672;2023-03-03T02:53:32;98298.59;;;10.55;62.25
58373;BME280;44177;43.356;27.672;2023-03-03T02:55:57;98302.56;;;10.58;62.31
58373;BME280;44177;43.356;27.672;2023-03-03T02:58:23;98299.06;;;10.57;62.12
58373;BME280;44177;43.356;27.672;2023-03-03T03:00:48;98305.63;;;10.56;62.12
58373;BME280;44177;43.356;27.672;2023-03-03T03:03:14;98313.00;;;10.56;62.42
58373;BME280;44177;43.356;27.672;2023-03-03T03:05:39;98299.97;;;10.49;62.13
58373;BME280;44177;43.356;27.672;2023-03-03T03:08:05;98307.56;;;10.56;62.13
58373;BME280;44177;43.356;27.672;2023-03-03T03:10:30;98301.66;;;10.54;62.21
58373;BME280;44177;43.356;27.672;2023-03-03T03:12:56;98297.78;;;10.55;62.52
58373;BME280;44177;43.356;27.672;2023-03-03T03:15:21;98295.41;;;10.53;62.36
58373;BME280;44177;43.356;27.672;2023-03-03T03:17:47;98292.69;;;10.53;62.29
58373;BME280;44177;43.356;27.672;2023-03-03T03:20:12;98289.16;;;10.53;62.13
58373;BME280;44177;43.356;27.672;2023-03-03T03:22:38;98297.00;;;10.54;62.32
58373;BME280;44177;43.356;27.672;2023-03-03T03:25:03;98301.66;;;10.54;62.31
58373;BME280;44177;43.356;27.672;2023-03-03T03:27:29;98295.41;;;10.53;62.37
58373;BME280;44177;43.356;27.672;2023-03-03T03:29:54;98293.47;;;10.54;62.11
58373;BME280;44177;43.356;27.672;2023-03-03T03:32:20;98304.38;;;10.54;62.16
58373;BME280;44177;43.356;27.672;2023-03-03T03:34:45;98303.25;;;10.55;61.97
58373;BME280;44177;43.356;27.672;2023-03-03T03:37:11;98309.03;;;10.53;62.24
58373;BME280;44177;43.356;27.672;2023-03-03T03:39:36;98303.25;;;10.55;62.33
58373;BME280;44177;43.356;27.672;2023-03-03T03:42:02;98293.91;;;10.56;62.30
58373;BME280;44177;43.356;27.672;2023-03-03T03:44:27;98296.19;;;10.54;62.12
58373;BME280;44177;43.356;27.672;2023-03-03T03:46:53;98292.31;;;10.55;62.29
58373;BME280;44177;43.356;27.672;2023-03-03T03:49:18;98285.28;;;10.54;62.19
58373;BME280;44177;43.356;27.672;2023-03-03T03:51:44;98278.94;;;10.50;62.23
58373;BME280;44177;43.356;27.672;2023-03-03T03:54:09;98277.09;;;10.54;62.32
58373;BME280;44177;43.356;27.672;2023-03-03T03:56:35;98279.81;;;10.54;62.34
58373;BME280;44177;43.356;27.672;2023-03-03T03:59:00;98277.09;;;10.54;62.16
58373;BME280;44177;43.356;27.672;2023-03-03T04:01:26;98279.81;;;10.54;62.16
58373;BME280;44177;43.356;27.672;2023-03-03T04:03:52;98274.81;;;10.56;62.28
58373;BME280;44177;43.356;27.672;2023-03-03T04:06:17;98264.16;;;10.51;62.33
58373;BME280;44177;43.356;27.672;2023-03-03T04:08:43;98284.16;;;10.55;62.36
58373;BME280;44177;43.356;27.672;2023-03-03T04:11:08;98272.81;;;10.53;62.14
58373;BME280;44177;43.356;27.672;2023-03-03T04:13:34;98268.81;;;10.50;62.14
58373;BME280;44177;43.356;27.672;2023-03-03T04:16:01;98275.97;;;10.55;62.34
58373;BME280;44177;43.356;27.672;2023-03-03T04:18:26;98262.56;;;10.50;62.18
58373;BME280;44177;43.356;27.672;2023-03-03T04:20:52;98263.34;;;10.50;62.11
58373;BME280;44177;43.356;27.672;2023-03-03T04:23:19;98269.25;;;10.52;62.39
58373;BME280;44177;43.356;27.672;2023-03-03T04:25:47;98266.88;;;10.51;62.11
58373;BME280;44177;43.356;27.672;2023-03-03T04:28:14;98270.06;;;10.53;62.20
58373;BME280;44177;43.356;27.672;2023-03-03T04:30:40;98269.63;;;10.51;62.21
58373;BME280;44177;43.356;27.672;2023-03-03T04:33:06;98271.63;;;10.54;62.28
58373;BME280;44177;43.356;27.672;2023-03-03T04:35:31;98266.53;;;10.52;62.08
58373;BME280;44177;43.356;27.672;2023-03-03T04:37:57;98257.00;;;10.46;62.26
58373;BME280;44177;43.356;27.672;2023-03-03T04:40:22;98262.56;;;10.50;62.38
58373;BME280;44177;43.356;27.672;2023-03-03T04:42:48;98253.50;;;10.46;62.23
58373;BME280;44177;43.356;27.672;2023-03-03T04:45:14;98251.56;;;10.46;62.29
58373;BME280;44177;43.356;27.672;2023-03-03T04:47:40;98258.72;;;10.51;62.13
58373;BME280;44177;43.356;27.672;2023-03-03T04:50:06;98261.44;;;10.51;62.35
58373;BME280;44177;43.356;27.672;2023-03-03T04:52:32;98258.72;;;10.51;62.24
58373;BME280;44177;43.356;27.672;2023-03-03T04:54:57;98261.88;;;10.53;62.20
58373;BME280;44177;43.356;27.672;2023-03-03T04:57:23;98254.84;;;10.52;62.07
58373;BME280;44177;43.356;27.672;2023-03-03T04:59:48;98260.31;;;10.52;62.13
58373;BME280;44177;43.356;27.672;2023-03-03T05:02:14;98259.50;;;10.51;62.09
58373;BME280;44177;43.356;27.672;2023-03-03T05:04:39;98248.03;;;10.46;62.46
58373;BME280;44177;43.356;27.672;2023-03-03T05:07:05;98264.16;;;10.51;62.14
58373;BME280;44177;43.356;27.672;2023-03-03T05:09:30;98263.34;;;10.50;62.45
58373;BME280;44177;43.356;27.672;2023-03-03T05:11:55;98268.03;;;10.50;62.52
58373;BME280;44177;43.356;27.672;2023-03-03T05:14:21;98267.34;;;10.53;62.35
58373;BME280;44177;43.356;27.672;2023-03-03T05:16:47;98266.88;;;10.51;62.27
58373;BME280;44177;43.356;27.672;2023-03-03T05:19:12;98266.53;;;10.52;62.34
58373;BME280;44177;43.356;27.672;2023-03-03T05:21:38;98261.69;;;10.46;62.40
58373;BME280;44177;43.356;27.672;2023-03-03T05:24:08;98269.63;;;10.51;62.23
58373;BME280;44177;43.356;27.672;2023-03-03T05:26:34;98274.25;;;10.50;62.38
58373;BME280;44177;43.356;27.672;2023-03-03T05:28:59;98268.03;;;10.50;62.13
58373;BME280;44177;43.356;27.672;2023-03-03T05:31:25;98276.66;;;10.52;62.39
58373;BME280;44177;43.356;27.672;2023-03-03T05:33:52;98285.63;;;10.52;62.22
58373;BME280;44177;43.356;27.672;2023-03-03T05:36:18;98286.75;;;10.51;62.40
58373;BME280;44177;43.356;27.672;2023-03-03T05:38:43;98281.66;;;10.50;62.40
58373;BME280;44177;43.356;27.672;2023-03-03T05:41:09;98286.34;;;10.49;62.09
58373;BME280;44177;43.356;27.672;2023-03-03T05:43:34;98276.88;;;10.47;62.20
58373;BME280;44177;43.356;27.672;2023-03-03T05:46:00;98287.13;;;10.50;62.44
58373;BME280;44177;43.356;27.672;2023-03-03T05:48:26;98293.72;;;10.49;62.49
58373;BME280;44177;43.356;27.672;2023-03-03T05:50:51;98290.63;;;10.50;62.12
58373;BME280;44177;43.356;27.672;2023-03-03T05:53:17;98288.25;;;10.49;62.12
58373;BME280;44177;43.356;27.672;2023-03-03T05:55:42;98290.97;;;10.49;62.32
58373;BME280;44177;43.356;27.672;2023-03-03T05:58:08;98288.25;;;10.49;62.41
58373;BME280;44177;43.356;27.672;2023-03-03T06:00:33;98280.78;;;10.46;62.36
58373;BME280;44177;43.356;27.672;2023-03-03T06:02:59;98282.78;;;10.49;62.47
58373;BME280;44177;43.356;27.672;2023-03-03T06:05:24;98285.06;;;10.47;62.39
58373;BME280;44177;43.356;27.672;2023-03-03T06:07:50;98283.94;;;10.48;62.17
58373;BME280;44177;43.356;27.672;2023-03-03T06:10:15;98285.88;;;10.47;62.18
58373;BME280;44177;43.356;27.672;2023-03-03T06:12:41;98271.66;;;10.41;62.17
58373;BME280;44177;43.356;27.672;2023-03-03T06:15:07;98277.59;;;10.43;62.19
58373;BME280;44177;43.356;27.672;2023-03-03T06:17:33;98282.34;;;10.47;62.52
58373;BME280;44177;43.356;27.672;2023-03-03T06:19:59;98281.19;;;10.48;62.14
58373;BME280;44177;43.356;27.672;2023-03-03T06:22:24;98287.47;;;10.48;62.28
58373;BME280;44177;43.356;27.672;2023-03-03T06:24:50;98286.66;;;10.48;62.22
58373;BME280;44177;43.356;27.672;2023-03-03T06:27:17;98283.50;;;10.46;62.44
58373;BME280;44177;43.356;27.672;2023-03-03T06:29:43;98293.34;;;10.50;62.53
58373;BME280;44177;43.356;27.672;2023-03-03T06:32:08;98290.50;;;10.47;62.26
58373;BME280;44177;43.356;27.672;2023-03-03T06:34:34;98281.91;;;10.45;62.21
58373;BME280;44177;43.356;27.672;2023-03-03T06:37:00;98283.94;;;10.48;62.40
58373;BME280;44177;43.356;27.672;2023-03-03T06:39:25;98282.00;;;10.48;62.39
58373;BME280;44177;43.356;27.672;2023-03-03T06:41:50;98284.63;;;10.45;62.34
58373;BME280;44177;43.356;27.672;2023-03-03T06:44:16;98278.72;;;10.42;62.31
58373;BME280;44177;43.356;27.672;2023-03-03T06:46:41;98289.84;;;10.50;62.48
58373;BME280;44177;43.356;27.672;2023-03-03T06:49:07;98292.13;;;10.48;62.21
58373;BME280;44177;43.356;27.672;2023-03-03T06:51:37;98295.66;;;10.48;62.04
58373;BME280;44177;43.356;27.672;2023-03-03T06:54:12;98290.50;;;10.47;62.11
58373;BME280;44177;43.356;27.672;2023-03-03T06:56:39;98292.56;;;10.50;62.28
58373;BME280;44177;43.356;27.672;2023-03-03T06:59:10;98297.56;;;10.48;62.24
58373;BME280;44177;43.356;27.672;2023-03-03T07:01:37;98299.16;;;10.49;62.18
58373;BME280;44177;43.356;27.672;2023-03-03T07:04:30;98299.16;;;10.49;62.28
58373;BME280;44177;43.356;27.672;2023-03-03T07:06:59;98295.97;;;10.47;62.36
58373;BME280;44177;43.356;27.672;2023-03-03T07:09:31;98294.41;;;10.46;62.43
58373;BME280;44177;43.356;27.672;2023-03-03T07:12:04;98293.59;;;10.45;62.15
58373;BME280;44177;43.356;27.672;2023-03-03T07:14:31;98284.63;;;10.45;62.22
58373;BME280;44177;43.356;27.672;2023-03-03T07:17:03;98294.84;;;10.48;62.34
58373;BME280;44177;43.356;27.672;2023-03-03T07:19:34;98293.59;;;10.45;62.14
58373;BME280;44177;43.356;27.672;2023-03-03T07:22:11;98289.38;;;10.48;62.24
58373;BME280;44177;43.356;27.672;2023-03-03T07:24:39;98280.78;;;10.46;62.40
58373;BME280;44177;43.356;27.672;2023-03-03T07:29:32;98275.63;;;10.44;62.15
58373;BME280;44177;43.356;27.672;2023-03-03T07:32:00;98285.06;;;10.47;62.28
58373;BME280;44177;43.356;27.672;2023-03-03T07:34:35;98277.22;;;10.45;62.24
58373;BME280;44177;43.356;27.672;2023-03-03T07:37:08;98283.59;;;10.49;62.44
58373;BME280;44177;43.356;27.672;2023-03-03T07:39:37;98276.56;;;10.48;62.26
58373;BME280;44177;43.356;27.672;2023-03-03T07:44:58;98274.63;;;10.49;62.36
58373;BME280;44177;43.356;27.672;2023-03-03T07:47:35;98281.19;;;10.48;62.36
58373;BME280;44177;43.356;27.672;2023-03-03T07:50:13;98260.88;;;10.45;62.12
58373;BME280;44177;43.356;27.672;2023-03-03T07:52:43;98273.03;;;10.48;62.09
58373;BME280;44177;43.356;27.672;2023-03-03T07:55:37;98265.28;;;10.50;62.28
58373;BME280;44177;43.356;27.672;2023-03-03T08:01:34;98265.28;;;10.50;62.38
58373;BME280;44177;43.356;27.672;2023-03-03T08:04:11;98256.22;;;10.46;62.36
58373;BME280;44177;43.356;27.672;2023-03-03T08:06:44;98254.97;;;10.43;62.15
58373;BME280;44177;43.356;27.672;2023-03-03T08:11:52;98266.88;;;10.51;62.25
58373;BME280;44177;43.356;27.672;2023-03-03T08:14:33;98259.06;;;10.49;62.20
58373;BME280;44177;43.356;27.672;2023-03-03T08:16:59;98257.13;;;10.50;62.08
58373;BME280;44177;43.356;27.672;2023-03-03T08:19:25;98267.34;;;10.53;62.19
58373;BME280;44177;43.356;27.672;2023-03-03T08:22:08;98254.84;;;10.52;61.72
58373;BME280;44177;43.356;27.672;2023-03-03T08:24:36;98250.78;;;10.46;58.25
58373;BME280;44177;43.356;27.672;2023-03-03T08:27:01;98253.03;;;10.43;56.75
58373;BME280;44177;43.356;27.672;2023-03-03T08:29:27;98256.56;;;10.44;55.35
58373;BME280;44177;43.356;27.672;2023-03-03T08:31:52;98260.88;;;10.45;54.92
58373;BME280;44177;43.356;27.672;2023-03-03T08:34:18;98254.63;;;10.45;55.13
58373;BME280;44177;43.356;27.672;2023-03-03T08:36:43;98247.59;;;10.43;55.15
58373;BME280;44177;43.356;27.672;2023-03-03T08:39:09;98254.63;;;10.45;55.05
58373;BME280;44177;43.356;27.672;2023-03-03T08:41:34;98260.75;;;10.41;55.33
58373;BME280;44177;43.356;27.672;2023-03-03T08:44:00;98255.78;;;10.43;54.86
58373;BME280;44177;43.356;27.672;2023-03-03T08:46:25;98258.50;;;10.43;53.70
58373;BME280;44177;43.356;27.672;2023-03-03T08:48:52;98260.09;;;10.45;53.61
58373;BME280;44177;43.356;27.672;2023-03-03T08:51:18;98254.84;;;10.39;53.49
58373;BME280;44177;43.356;27.672;2023-03-03T08:53:43;98253.72;;;10.40;53.27
58373;BME280;44177;43.356;27.672;2023-03-03T08:56:09;98253.72;;;10.40;53.65
58373;BME280;44177;43.356;27.672;2023-03-03T08:58:34;98253.72;;;10.40;53.79
58373;BME280;44177;43.356;27.672;2023-03-03T09:01:00;98261.91;;;10.40;52.98
58373;BME280;44177;43.356;27.672;2023-03-03T09:03:25;98239.50;;;10.35;52.84
58373;BME280;44177;43.356;27.672;2023-03-03T09:05:51;98242.72;;;10.37;52.71
58373;BME280;44177;43.356;27.672;2023-03-03T09:08:16;98244.63;;;10.36;52.96
58373;BME280;44177;43.356;27.672;2023-03-03T09:10:42;98238.06;;;10.37;52.91
58373;BME280;44177;43.356;27.672;2023-03-03T09:13:14;98239.16;;;10.36;52.76
58373;BME280;44177;43.356;27.672;2023-03-03T09:15:39;98234.38;;;10.33;52.56
58373;BME280;44177;43.356;27.672;2023-03-03T09:18:20;98232.91;;;10.36;52.36
58373;BME280;44177;43.356;27.672;2023-03-03T09:20:50;98227.94;;;10.38;52.54
58373;BME280;44177;43.356;27.672;2023-03-03T09:25:41;98227.59;;;10.39;52.77
58373;BME280;44177;43.356;27.672;2023-03-03T09:28:30;98227.16;;;10.37;53.87
58373;BME280;44177;43.356;27.672;2023-03-03T09:31:01;98222.59;;;10.41;52.71
58373;BME280;44177;43.356;27.672;2023-03-03T09:38:39;98206.69;;;10.43;54.28
58373;BME280;44177;43.356;27.672;2023-03-03T09:49:08;98204.06;;;10.47;53.12
58373;BME280;44177;43.356;27.672;2023-03-03T09:52:18;98214.59;;;10.49;51.72
58373;BME280;44177;43.356;27.672;2023-03-03T09:54:54;98204.94;;;10.51;51.75
58373;BME280;44177;43.356;27.672;2023-03-03T10:00:21;98202.09;;;10.48;52.81
58373;BME280;44177;43.356;27.672;2023-03-03T10:05:57;98197.78;;;10.47;57.24
58373;BME280;44177;43.356;27.672;2023-03-03T10:24:30;98180.53;;;10.42;53.18
58373;BME280;44177;43.356;27.672;2023-03-03T10:27:27;98164.53;;;10.41;52.55
58373;BME280;44177;43.356;27.672;2023-03-03T10:44:27;98146.28;;;10.57;53.81
58373;BME280;44177;43.356;27.672;2023-03-03T10:49:51;98138.88;;;10.58;52.23
58373;BME280;44177;43.356;27.672;2023-03-03T10:58:08;98131.00;;;10.69;53.16
58373;BME280;44177;43.356;27.672;2023-03-03T11:14:12;98095.63;;;10.72;56.27
58373;BME280;44177;43.356;27.672;2023-03-03T11:16:59;98089.47;;;10.76;55.65
58373;BME280;44177;43.356;27.672;2023-03-03T11:23:04;98083.31;;;10.79;56.68
58373;BME280;44177;43.356;27.672;2023-03-03T11:25:20;98080.25;;;10.80;56.95
58373;BME280;44177;43.356;27.672;2023-03-03T11:30:54;98056.91;;;10.83;57.35
58373;BME280;44177;43.356;27.672;2023-03-03T11:38:56;98063.25;;;10.87;57.30
58373;BME280;44177;43.356;27.672;2023-03-03T11:41:41;98064.81;;;10.88;57.46
58373;BME280;44177;43.356;27.672;2023-03-03T11:46:55;98053.28;;;10.79;57.96
58373;BME280;44177;43.356;27.672;2023-03-03T11:55:06;98054.28;;;10.86;57.96
58373;BME280;44177;43.356;27.672;2023-03-03T11:58:19;98057.09;;;10.90;57.97
58373;BME280;44177;43.356;27.672;2023-03-03T12:00:58;98055.50;;;10.89;58.04
58373;BME280;44177;43.356;27.672;2023-03-03T12:06:04;98046.88;;;10.87;58.15
58373;BME280;44177;43.356;27.672;2023-03-03T12:11:07;98044.22;;;10.90;58.20
58373;BME280;44177;43.356;27.672;2023-03-03T12:16:11;98048.63;;;10.95;58.30
58373;BME280;44177;43.356;27.672;2023-03-03T12:19:13;98044.75;;;10.96;58.27
58373;BME280;44177;43.356;27.672;2023-03-03T12:21:55;98025.56;;;10.93;58.19
58373;BME280;44177;43.356;27.672;2023-03-03T12:24:33;98038.16;;;10.97;58.12
58373;BME280;44177;43.356;27.672;2023-03-03T12:30:38;98035.88;;;10.99;58.26
58373;BME280;44177;43.356;27.672;2023-03-03T12:36:10;98034.72;;;11.00;58.33
58373;BME280;44177;43.356;27.672;2023-03-03T12:39:00;98027.69;;;10.99;58.28
58373;BME280;44177;43.356;27.672;2023-03-03T12:41:45;98035.50;;;11.01;58.64
58373;BME280;44177;43.356;27.672;2023-03-03T12:44:43;98032.34;;;10.99;58.47
58373;BME280;44177;43.356;27.672;2023-03-03T12:55:35;98042.47;;;10.98;58.79
58373;BME280;44177;43.356;27.672;2023-03-03T12:58:57;98039.31;;;10.96;58.60
58373;BME280;44177;43.356;27.672;2023-03-03T13:12:02;98022.56;;;10.98;58.95
58373;BME280;44177;43.356;27.672;2023-03-03T13:14:51;98019.06;;;10.97;58.83
58373;BME280;44177;43.356;27.672;2023-03-03T13:17:33;98021.78;;;10.97;58.78
58373;BME280;44177;43.356;27.672;2023-03-03T13:20:05;98019.84;;;10.98;59.02
58373;BME280;44177;43.356;27.672;2023-03-03T13:22:48;98021.78;;;10.97;59.13
58373;BME280;44177;43.356;27.672;2023-03-03T13:30:55;98015.88;;;10.95;59.01
58373;BME280;44177;43.356;27.672;2023-03-03T13:35:55;98012.81;;;10.97;59.03
58373;BME280;44177;43.356;27.672;2023-03-03T13:38:25;98008.50;;;10.96;59.05
58373;BME280;44177;43.356;27.672;2023-03-03T13:43:57;97997.13;;;10.94;59.10
58373;BME280;44177;43.356;27.672;2023-03-03T13:52:41;98004.97;;;10.95;59.08
58373;BME280;44177;43.356;27.672;2023-03-03T14:08:23;98007.25;;;10.93;59.45
58373;BME280;44177;43.356;27.672;2023-03-03T14:19:23;98010.34;;;10.92;59.85
58373;BME280;44177;43.356;27.672;2023-03-03T14:25:08;98006.81;;;10.91;59.77
58373;BME280;44177;43.356;27.672;2023-03-03T14:30:29;98011.84;;;10.89;59.98
58373;BME280;44177;43.356;27.672;2023-03-03T14:35:34;98017.28;;;10.89;59.74
58373;BME280;44177;43.356;27.672;2023-03-03T14:38:20;98008.66;;;10.87;59.76
58373;BME280;44177;43.356;27.672;2023-03-03T14:40:48;97997.31;;;10.85;60.02
58373;BME280;44177;43.356;27.672;2023-03-03T14:43:32;98010.25;;;10.88;59.66
58373;BME280;44177;43.356;27.672;2023-03-03T14:48:53;98013.34;;;10.86;59.88
58373;BME280;44177;43.356;27.672;2023-03-03T14:54:26;98001.53;;;10.82;60.12
58373;BME280;44177;43.356;27.672;2023-03-03T14:56:56;98016.44;;;10.85;60.20
58373;BME280;44177;43.356;27.672;2023-03-03T14:59:24;98005.75;;;10.80;60.13
58373;BME280;44177;43.356;27.672;2023-03-03T15:04:40;98008.94;;;10.82;60.04
58373;BME280;44177;43.356;27.672;2023-03-03T15:09:50;98010.06;;;10.81;60.05
58373;BME280;44177;43.356;27.672;2023-03-03T15:14:46;98010.06;;;10.81;60.22
58373;BME280;44177;43.356;27.672;2023-03-03T15:18:12;98022.22;;;10.83;60.31
58373;BME280;44177;43.356;27.672;2023-03-03T15:20:36;98017.91;;;10.82;60.38
58373;BME280;44177;43.356;27.672;2023-03-03T15:23:22;98016.31;;;10.81;60.16
58373;BME280;44177;43.356;27.672;2023-03-03T15:26:05;98015.53;;;10.81;60.67
58373;BME280;44177;43.356;27.672;2023-03-03T15:34:51;98024.09;;;10.79;60.37
58373;BME280;44177;43.356;27.672;2023-03-03T15:38:26;98017.03;;;10.78;60.65
58373;BME280;44177;43.356;27.672;2023-03-03T15:40:50;98012.28;;;10.75;60.72
58373;BME280;44177;43.356;27.672;2023-03-03T15:45:56;98022.84;;;10.77;60.64
58373;BME280;44177;43.356;27.672;2023-03-03T15:48:52;98019.69;;;10.74;60.71
58373;BME280;44177;43.356;27.672;2023-03-03T16:02:19;98028.66;;;10.75;60.60
58373;BME280;44177;43.356;27.672;2023-03-03T16:05:15;98027.88;;;10.74;60.69
58373;BME280;44177;43.356;27.672;2023-03-03T16:08:15;98035.59;;;10.72;60.66
58373;BME280;44177;43.356;27.672;2023-03-03T16:11:06;98029.78;;;10.74;60.58
58373;BME280;44177;43.356;27.672;2023-03-03T16:22:26;98047.66;;;10.71;60.88
58373;BME280;44177;43.356;27.672;2023-03-03T16:35:53;98057.16;;;10.62;61.07
58373;BME280;44177;43.356;27.672;2023-03-03T16:38:37;98070.63;;;10.70;60.93
58373;BME280;44177;43.356;27.672;2023-03-03T16:41:21;98074.47;;;10.69;61.09
58373;BME280;44177;43.356;27.672;2023-03-03T16:46:45;98072.13;;;10.68;61.23
58373;BME280;44177;43.356;27.672;2023-03-03T16:49:31;98069.28;;;10.64;61.26
58373;BME280;44177;43.356;27.672;2023-03-03T16:52:09;98077.22;;;10.69;61.17
58373;BME280;44177;43.356;27.672;2023-03-03T16:54:58;98079.94;;;10.69;61.24
58373;BME280;44177;43.356;27.672;2023-03-03T17:00:13;98087.34;;;10.69;61.28
58373;BME280;44177;43.356;27.672;2023-03-03T17:02:56;98095.53;;;10.69;61.11
58373;BME280;44177;43.356;27.672;2023-03-03T17:05:52;98085.41;;;10.69;61.14
58373;BME280;44177;43.356;27.672;2023-03-03T17:11:37;98093.94;;;10.68;61.15
58373;BME280;44177;43.356;27.672;2023-03-03T17:22:18;98108.72;;;10.67;61.28
58373;BME280;44177;43.356;27.672;2023-03-03T17:27:50;98107.94;;;10.66;61.23
58373;BME280;44177;43.356;27.672;2023-03-03T17:34:28;98104.41;;;10.66;61.20
58373;BME280;44177;43.356;27.672;2023-03-03T17:36:42;98100.91;;;10.65;61.67
58373;BME280;44177;43.356;27.672;2023-03-03T17:45:24;98106.16;;;10.58;61.35
58373;BME280;44177;43.356;27.672;2023-03-03T17:53:37;98111.03;;;10.65;61.71
58373;BME280;44177;43.356;27.672;2023-03-03T17:56:16;98110.22;;;10.64;61.62
58373;BME280;44177;43.356;27.672;2023-03-03T18:04:01;98116.47;;;10.65;61.56
58373;BME280;44177;43.356;27.672;2023-03-03T18:07:10;98121.94;;;10.65;61.59
58373;BME280;44177;43.356;27.672;2023-03-03T18:18:05;98125.00;;;10.63;61.73
58373;BME280;44177;43.356;27.672;2023-03-03T18:21:01;98131.59;;;10.62;61.93